createdAt,value
2016-12-31T00:00:21.118Z,1026.73
2016-12-31T00:01:27.272Z,1026.72
2016-12-31T00:02:33.444Z,1026.69
2016-12-31T00:03:37.777Z,1026.73
2016-12-31T00:04:43.969Z,1026.69
2016-12-31T00:05:49.167Z,1026.75
2016-12-31T00:06:55.327Z,1026.72
2016-12-31T00:08:01.496Z,1026.7
2016-12-31T00:09:05.721Z,1026.76
2016-12-31T00:10:09.953Z,1026.7
2016-12-31T00:11:15.152Z,1026.75
2016-12-31T00:12:21.314Z,1026.76
2016-12-31T00:13:27.483Z,1026.75
2016-12-31T00:14:32.693Z,1026.71
2016-12-31T00:15:37.949Z,1026.73
2016-12-31T00:16:43.110Z,1026.76
2016-12-31T00:17:47.315Z,1026.73
2016-12-31T00:18:52.498Z,1026.72
2016-12-31T00:19:58.720Z,1026.69
2016-12-31T00:21:03.913Z,1026.68
2016-12-31T00:22:09.131Z,1026.69
2016-12-31T00:23:14.300Z,1026.66
2016-12-31T00:24:20.461Z,1026.66
2016-12-31T00:25:25.659Z,1026.67
2016-12-31T00:26:30.820Z,1026.66
2016-12-31T00:27:36.990Z,1026.69
2016-12-31T00:28:42.253Z,1026.64
2016-12-31T00:29:47.433Z,1026.67
2016-12-31T00:30:52.595Z,1026.65
2016-12-31T00:31:58.759Z,1026.59
2016-12-31T00:33:03.953Z,1026.56
2016-12-31T00:34:09.153Z,1026.57
2016-12-31T00:35:15.324Z,1026.56
2016-12-31T00:36:20.494Z,1026.59
2016-12-31T00:37:23.756Z,1026.58
2016-12-31T00:38:28.955Z,1026.6
2016-12-31T00:39:33.261Z,1026.6
2016-12-31T00:40:38.586Z,1026.6
2016-12-31T00:41:44.781Z,1026.62
2016-12-31T00:42:50.944Z,1026.59
2016-12-31T00:43:55.144Z,1026.63
2016-12-31T00:44:59.369Z,1026.6
2016-12-31T00:46:05.528Z,1026.61
2016-12-31T00:47:10.722Z,1026.64
2016-12-31T00:48:16.900Z,1026.59
2016-12-31T00:49:23.062Z,1026.58
2016-12-31T00:50:27.293Z,1026.59
2016-12-31T00:51:32.523Z,1026.6
2016-12-31T00:52:37.783Z,1026.59
2016-12-31T00:53:42.002Z,1026.62
2016-12-31T00:55:51.402Z,1026.65
2016-12-31T00:56:57.604Z,1026.64
2016-12-31T00:58:03.723Z,1026.62
2016-12-31T00:59:09.892Z,1026.61
2016-12-31T01:00:14.131Z,1026.62
2016-12-31T01:01:19.445Z,1026.61
2016-12-31T01:02:24.643Z,1026.62
2016-12-31T01:03:30.810Z,1026.6
2016-12-31T01:04:36.004Z,1026.59
2016-12-31T01:05:42.168Z,1026.59
2016-12-31T01:06:47.428Z,1026.58
2016-12-31T01:07:53.651Z,1026.59
2016-12-31T01:08:59.819Z,1026.6
2016-12-31T01:10:04.986Z,1026.65
2016-12-31T01:11:10.185Z,1026.61
2016-12-31T01:12:16.357Z,1026.62
2016-12-31T01:13:21.281Z,1026.64
2016-12-31T01:14:26.479Z,1026.63
2016-12-31T01:15:32.636Z,1026.62
2016-12-31T01:16:38.812Z,1026.64
2016-12-31T01:17:44.060Z,1026.64
2016-12-31T01:18:49.241Z,1026.66
2016-12-31T01:19:53.468Z,1026.67
2016-12-31T01:20:57.776Z,1026.7
2016-12-31T01:22:03.997Z,1026.68
2016-12-31T01:23:10.140Z,1026.68
2016-12-31T01:24:14.441Z,1026.72
2016-12-31T01:25:18.752Z,1026.66
2016-12-31T01:26:24.906Z,1026.72
2016-12-31T01:27:30.135Z,1026.69
2016-12-31T01:28:35.333Z,1026.69
2016-12-31T01:29:41.615Z,1026.69
2016-12-31T01:30:46.760Z,1026.73
2016-12-31T01:31:51.981Z,1026.67
2016-12-31T01:32:57.144Z,1026.73
2016-12-31T01:34:03.409Z,1026.69
2016-12-31T01:35:07.634Z,1026.72
2016-12-31T01:36:12.864Z,1026.7
2016-12-31T01:37:18.997Z,1026.62
2016-12-31T01:38:24.201Z,1026.65
2016-12-31T01:39:30.501Z,1026.66
2016-12-31T01:40:36.671Z,1026.65
2016-12-31T01:41:42.844Z,1026.68
2016-12-31T01:42:47.078Z,1026.67
2016-12-31T01:43:53.254Z,1026.64
2016-12-31T01:44:58.447Z,1026.68
2016-12-31T01:46:03.696Z,1026.67
2016-12-31T01:47:07.890Z,1026.67
2016-12-31T01:48:12.237Z,1026.62
2016-12-31T01:49:16.404Z,1026.62
2016-12-31T01:50:20.642Z,1026.6
2016-12-31T01:51:24.886Z,1026.59
2016-12-31T01:52:31.048Z,1026.61
2016-12-31T01:53:37.207Z,1026.66
2016-12-31T01:54:42.444Z,1026.63
2016-12-31T01:55:48.748Z,1026.64
2016-12-31T01:56:54.910Z,1026.6
2016-12-31T01:58:01.077Z,1026.59
2016-12-31T01:59:06.239Z,1026.64
2016-12-31T02:00:11.737Z,1026.6
2016-12-31T02:01:16.920Z,1026.59
2016-12-31T02:02:22.257Z,1026.57
2016-12-31T02:03:28.413Z,1026.53
2016-12-31T02:04:34.587Z,1026.54
2016-12-31T02:05:39.823Z,1026.54
2016-12-31T02:06:46.110Z,1026.5
2016-12-31T02:07:49.302Z,1026.48
2016-12-31T02:08:54.532Z,1026.44
2016-12-31T02:09:59.979Z,1026.49
2016-12-31T02:11:05.171Z,1026.42
2016-12-31T02:12:10.361Z,1026.4
2016-12-31T02:13:15.559Z,1026.43
2016-12-31T02:14:20.745Z,1026.45
2016-12-31T02:15:25.952Z,1026.43
2016-12-31T02:16:30.178Z,1026.45
2016-12-31T02:17:36.394Z,1026.48
2016-12-31T02:18:41.587Z,1026.45
2016-12-31T02:19:47.761Z,1026.43
2016-12-31T02:20:52.021Z,1026.43
2016-12-31T02:21:58.270Z,1026.38
2016-12-31T02:23:03.366Z,1026.41
2016-12-31T02:24:09.531Z,1026.43
2016-12-31T02:25:14.707Z,1026.37
2016-12-31T02:26:20.869Z,1026.32
2016-12-31T02:27:26.046Z,1026.3
2016-12-31T02:28:31.204Z,1026.28
2016-12-31T02:29:36.456Z,1026.3
2016-12-31T02:30:42.633Z,1026.26
2016-12-31T02:31:48.795Z,1026.26
2016-12-31T02:32:54.953Z,1026.28
2016-12-31T02:34:01.150Z,1026.26
2016-12-31T02:35:06.280Z,1026.24
2016-12-31T02:36:10.535Z,1026.27
2016-12-31T02:37:13.804Z,1026.27
2016-12-31T02:38:18.008Z,1026.24
2016-12-31T02:39:23.199Z,1026.26
2016-12-31T02:40:29.362Z,1026.23
2016-12-31T02:41:34.549Z,1026.23
2016-12-31T02:42:39.789Z,1026.19
2016-12-31T02:43:45.950Z,1026.2
2016-12-31T02:44:52.119Z,1026.23
2016-12-31T02:45:57.313Z,1026.23
2016-12-31T02:47:03.512Z,1026.19
2016-12-31T02:48:08.700Z,1026.22
2016-12-31T02:49:13.885Z,1026.2
2016-12-31T02:50:20.047Z,1026.2
2016-12-31T02:51:24.243Z,1026.19
2016-12-31T02:52:28.475Z,1026.19
2016-12-31T02:53:34.636Z,1026.22
2016-12-31T02:54:40.811Z,1026.2
2016-12-31T02:55:46.002Z,1026.19
2016-12-31T02:56:52.155Z,1026.19
2016-12-31T02:57:57.344Z,1026.18
2016-12-31T02:59:02.542Z,1026.15
2016-12-31T03:00:07.729Z,1026.15
2016-12-31T03:01:13.968Z,1026.14
2016-12-31T03:02:19.198Z,1026.13
2016-12-31T03:03:23.448Z,1026.12
2016-12-31T03:04:28.651Z,1026.13
2016-12-31T03:05:33.856Z,1026.09
2016-12-31T03:06:39.045Z,1026.11
2016-12-31T03:07:44.280Z,1026.13
2016-12-31T03:08:49.472Z,1026.15
2016-12-31T03:09:55.631Z,1026.13
2016-12-31T03:11:01.801Z,1026.12
2016-12-31T03:12:07.966Z,1026.14
2016-12-31T03:13:13.161Z,1026.12
2016-12-31T03:14:19.317Z,1026.08
2016-12-31T03:15:23.587Z,1026.08
2016-12-31T03:16:26.285Z,1026.06
2016-12-31T03:17:31.854Z,1026.1
2016-12-31T03:18:37.021Z,1026.05
2016-12-31T03:19:42.304Z,1026
2016-12-31T03:20:46.524Z,1026.03
2016-12-31T03:21:51.720Z,1026.05
2016-12-31T03:22:57.923Z,1026.05
2016-12-31T03:24:04.047Z,1025.99
2016-12-31T03:25:09.239Z,1026.01
2016-12-31T03:26:14.498Z,1026
2016-12-31T03:27:18.736Z,1025.99
2016-12-31T03:28:23.788Z,1025.95
2016-12-31T03:29:28.213Z,1025.99
2016-12-31T03:30:33.417Z,1026
2016-12-31T03:31:38.602Z,1025.99
2016-12-31T03:32:43.779Z,1025.94
2016-12-31T03:33:48.971Z,1025.94
2016-12-31T03:34:54.193Z,1025.89
2016-12-31T03:35:59.383Z,1025.93
2016-12-31T03:37:04.577Z,1025.91
2016-12-31T03:38:10.731Z,1025.93
2016-12-31T03:39:15.968Z,1025.88
2016-12-31T03:40:21.228Z,1025.92
2016-12-31T03:41:25.498Z,1025.86
2016-12-31T03:42:31.653Z,1025.86
2016-12-31T03:43:36.855Z,1025.82
2016-12-31T03:44:42.048Z,1025.84
2016-12-31T03:45:48.420Z,1025.83
2016-12-31T03:46:53.621Z,1025.81
2016-12-31T03:47:59.782Z,1025.82
2016-12-31T03:49:04.982Z,1025.79
2016-12-31T03:50:11.152Z,1025.77
2016-12-31T03:51:16.347Z,1025.79
2016-12-31T03:52:22.510Z,1025.82
2016-12-31T03:53:27.700Z,1025.75
2016-12-31T03:54:33.856Z,1025.8
2016-12-31T03:55:39.104Z,1025.78
2016-12-31T03:56:44.355Z,1025.79
2016-12-31T03:57:50.517Z,1025.8
2016-12-31T03:58:55.724Z,1025.81
2016-12-31T03:59:59.950Z,1025.79
2016-12-31T04:01:06.130Z,1025.73
2016-12-31T04:02:11.393Z,1025.77
2016-12-31T04:03:16.597Z,1025.74
2016-12-31T04:04:20.824Z,1025.71
2016-12-31T04:05:26.985Z,1025.75
2016-12-31T04:06:31.218Z,1025.75
2016-12-31T04:07:37.411Z,1025.71
2016-12-31T04:08:43.609Z,1025.71
2016-12-31T04:09:47.837Z,1025.73
2016-12-31T04:10:53.002Z,1025.73
2016-12-31T04:11:59.168Z,1025.69
2016-12-31T04:13:04.343Z,1025.73
2016-12-31T04:14:09.551Z,1025.65
2016-12-31T04:15:15.714Z,1025.66
2016-12-31T04:16:21.876Z,1025.68
2016-12-31T04:17:28.086Z,1025.64
2016-12-31T04:18:33.234Z,1025.6
2016-12-31T04:19:38.540Z,1025.64
2016-12-31T04:20:44.837Z,1025.62
2016-12-31T04:21:48.067Z,1025.62
2016-12-31T04:22:52.308Z,1025.58
2016-12-31T04:23:57.501Z,1025.52
2016-12-31T04:25:02.729Z,1025.58
2016-12-31T04:26:06.921Z,1025.58
2016-12-31T04:27:09.213Z,1025.59
2016-12-31T04:28:12.459Z,1025.56
2016-12-31T04:29:18.621Z,1025.58
2016-12-31T04:30:23.862Z,1025.55
2016-12-31T04:31:28.156Z,1025.52
2016-12-31T04:32:33.303Z,1025.5
2016-12-31T04:33:38.500Z,1025.47
2016-12-31T04:34:41.767Z,1025.51
2016-12-31T04:35:47.957Z,1025.5
2016-12-31T04:36:53.157Z,1025.45
2016-12-31T04:37:59.323Z,1025.48
2016-12-31T04:39:05.484Z,1025.51
2016-12-31T04:40:11.643Z,1025.52
2016-12-31T04:41:17.803Z,1025.52
2016-12-31T04:42:23.988Z,1025.51
2016-12-31T04:43:28.242Z,1025.51
2016-12-31T04:44:31.580Z,1025.52
2016-12-31T04:45:34.807Z,1025.52
2016-12-31T04:46:39.006Z,1025.51
2016-12-31T04:47:44.237Z,1025.46
2016-12-31T04:48:49.425Z,1025.48
2016-12-31T04:49:53.623Z,1025.52
2016-12-31T04:50:57.874Z,1025.51
2016-12-31T04:52:03.058Z,1025.52
2016-12-31T04:53:09.229Z,1025.49
2016-12-31T04:54:14.411Z,1025.53
2016-12-31T04:55:20.570Z,1025.5
2016-12-31T04:56:26.736Z,1025.49
2016-12-31T04:57:30.960Z,1025.47
2016-12-31T04:58:36.151Z,1025.48
2016-12-31T04:59:42.416Z,1025.44
2016-12-31T05:00:48.573Z,1025.46
2016-12-31T05:01:52.810Z,1025.43
2016-12-31T05:02:58.974Z,1025.4
2016-12-31T05:04:03.196Z,1025.44
2016-12-31T05:05:09.356Z,1025.41
2016-12-31T05:06:15.517Z,1025.42
2016-12-31T05:07:21.680Z,1025.39
2016-12-31T05:08:26.879Z,1025.39
2016-12-31T05:09:32.082Z,1025.43
2016-12-31T05:10:38.243Z,1025.4
2016-12-31T05:11:43.550Z,1025.41
2016-12-31T05:12:49.713Z,1025.43
2016-12-31T05:13:54.944Z,1025.4
2016-12-31T05:15:01.101Z,1025.39
2016-12-31T05:16:07.262Z,1025.35
2016-12-31T05:17:12.455Z,1025.37
2016-12-31T05:18:17.738Z,1025.42
2016-12-31T05:19:23.884Z,1025.43
2016-12-31T05:20:29.093Z,1025.42
2016-12-31T05:21:35.252Z,1025.43
2016-12-31T05:22:41.451Z,1025.46
2016-12-31T05:23:46.604Z,1025.48
2016-12-31T05:24:50.893Z,1025.45
2016-12-31T05:25:56.083Z,1025.43
2016-12-31T05:27:02.245Z,1025.45
2016-12-31T05:28:06.505Z,1025.46
2016-12-31T05:29:12.670Z,1025.44
2016-12-31T05:30:18.828Z,1025.44
2016-12-31T05:31:24.993Z,1025.42
2016-12-31T05:32:30.192Z,1025.42
2016-12-31T05:33:35.384Z,1025.4
2016-12-31T05:34:38.643Z,1025.38
2016-12-31T05:35:44.801Z,1025.33
2016-12-31T05:36:49.998Z,1025.32
2016-12-31T05:37:56.176Z,1025.35
2016-12-31T05:39:02.369Z,1025.34
2016-12-31T05:40:08.501Z,1025.36
2016-12-31T05:41:13.796Z,1025.33
2016-12-31T05:42:17.987Z,1025.35
2016-12-31T05:43:23.173Z,1025.31
2016-12-31T05:44:27.454Z,1025.3
2016-12-31T05:45:32.647Z,1025.31
2016-12-31T05:46:38.827Z,1025.31
2016-12-31T05:47:44.982Z,1025.35
2016-12-31T05:48:50.177Z,1025.36
2016-12-31T05:49:56.333Z,1025.3
2016-12-31T05:51:02.502Z,1025.29
2016-12-31T05:52:07.676Z,1025.29
2016-12-31T05:53:12.877Z,1025.29
2016-12-31T05:54:19.041Z,1025.29
2016-12-31T05:55:24.234Z,1025.31
2016-12-31T05:56:29.427Z,1025.27
2016-12-31T05:57:34.621Z,1025.25
2016-12-31T05:58:39.828Z,1025.23
2016-12-31T05:59:45.028Z,1025.27
2016-12-31T06:00:51.198Z,1025.24
2016-12-31T06:01:56.392Z,1025.3
2016-12-31T06:03:01.632Z,1025.3
2016-12-31T06:04:07.798Z,1025.33
2016-12-31T06:05:13.119Z,1025.32
2016-12-31T06:06:19.342Z,1025.36
2016-12-31T06:07:24.496Z,1025.35
2016-12-31T06:08:30.664Z,1025.37
2016-12-31T06:09:35.859Z,1025.39
2016-12-31T06:10:41.064Z,1025.34
2016-12-31T06:11:47.274Z,1025.33
2016-12-31T06:12:53.250Z,1025.31
2016-12-31T06:13:59.411Z,1025.31
2016-12-31T06:15:04.612Z,1025.24
2016-12-31T06:16:10.542Z,1025.24
2016-12-31T06:17:15.741Z,1025.28
2016-12-31T06:18:20.903Z,1025.27
2016-12-31T06:19:26.108Z,1025.25
2016-12-31T06:20:32.287Z,1025.25
2016-12-31T06:21:36.492Z,1025.26
2016-12-31T06:22:42.652Z,1025.2
2016-12-31T06:23:47.859Z,1025.17
2016-12-31T06:24:52.024Z,1025.22
2016-12-31T06:25:57.216Z,1025.22
2016-12-31T06:27:02.450Z,1025.19
2016-12-31T06:28:07.646Z,1025.23
2016-12-31T06:29:13.813Z,1025.26
2016-12-31T06:30:18.038Z,1025.28
2016-12-31T06:31:23.232Z,1025.26
2016-12-31T06:32:29.392Z,1025.26
2016-12-31T06:33:34.582Z,1025.29
2016-12-31T06:34:39.795Z,1025.31
2016-12-31T06:35:44.020Z,1025.34
2016-12-31T06:36:47.263Z,1025.29
2016-12-31T06:37:53.421Z,1025.28
2016-12-31T06:38:58.608Z,1025.28
2016-12-31T06:40:02.807Z,1025.25
2016-12-31T06:41:08.965Z,1025.24
2016-12-31T06:42:13.195Z,1025.22
2016-12-31T06:43:19.362Z,1025.21
2016-12-31T06:44:23.590Z,1025.23
2016-12-31T06:45:28.814Z,1025.19
2016-12-31T06:46:34.971Z,1025.23
2016-12-31T06:47:40.147Z,1025.16
2016-12-31T06:48:44.400Z,1025.17
2016-12-31T06:49:50.571Z,1025.14
2016-12-31T06:50:55.767Z,1025.15
2016-12-31T06:51:59.010Z,1025.12
2016-12-31T06:53:04.210Z,1025.07
2016-12-31T06:54:09.443Z,1025.14
2016-12-31T06:55:15.567Z,1025.07
2016-12-31T06:56:20.765Z,1025.1
2016-12-31T06:57:25.960Z,1025.07
2016-12-31T06:58:32.112Z,1025.13
2016-12-31T06:59:38.339Z,1025.04
2016-12-31T07:00:43.494Z,1025.1
2016-12-31T07:01:47.691Z,1025.06
2016-12-31T07:02:53.852Z,1025.07
2016-12-31T07:04:00.092Z,1025.07
2016-12-31T07:05:06.248Z,1025.07
2016-12-31T07:06:12.492Z,1025.06
2016-12-31T07:07:15.721Z,1025.08
2016-12-31T07:08:20.907Z,1025.1
2016-12-31T07:09:27.078Z,1025.07
2016-12-31T07:10:32.272Z,1025.08
2016-12-31T07:11:37.462Z,1025.11
2016-12-31T07:12:42.697Z,1025.1
2016-12-31T07:13:48.815Z,1025.19
2016-12-31T07:14:53.047Z,1025.17
2016-12-31T07:15:57.258Z,1025.19
2016-12-31T07:17:02.450Z,1025.16
2016-12-31T07:18:07.688Z,1025.16
2016-12-31T07:19:12.866Z,1025.15
2016-12-31T07:20:18.058Z,1025.16
2016-12-31T07:21:24.234Z,1025.15
2016-12-31T07:22:29.443Z,1025.16
2016-12-31T07:23:34.630Z,1025.18
2016-12-31T07:24:38.866Z,1025.14
2016-12-31T07:25:45.029Z,1025.11
2016-12-31T07:26:48.285Z,1025.11
2016-12-31T07:27:54.532Z,1025.16
2016-12-31T07:28:59.761Z,1025.16
2016-12-31T07:30:05.886Z,1025.15
2016-12-31T07:31:12.062Z,1025.19
2016-12-31T07:32:16.287Z,1025.2
2016-12-31T07:33:20.557Z,1025.17
2016-12-31T07:34:25.907Z,1025.16
2016-12-31T07:35:30.140Z,1025.14
2016-12-31T07:36:35.318Z,1025.15
2016-12-31T07:37:41.473Z,1025.14
2016-12-31T07:38:47.753Z,1025.19
2016-12-31T07:39:53.544Z,1025.15
2016-12-31T07:40:58.722Z,1025.16
2016-12-31T07:42:04.889Z,1025.17
2016-12-31T07:43:11.044Z,1025.15
2016-12-31T07:44:16.247Z,1025.16
2016-12-31T07:45:19.556Z,1025.14
2016-12-31T07:46:25.719Z,1025.13
2016-12-31T07:47:31.891Z,1025.13
2016-12-31T07:48:38.054Z,1025.15
2016-12-31T07:49:44.212Z,1025.12
2016-12-31T07:50:48.414Z,1025.08
2016-12-31T07:51:53.585Z,1025.06
2016-12-31T07:52:59.793Z,1025.06
2016-12-31T07:54:03.058Z,1025.1
2016-12-31T07:55:09.214Z,1025.07
2016-12-31T07:56:15.373Z,1025.09
2016-12-31T07:57:21.540Z,1025.09
2016-12-31T07:58:27.702Z,1025.1
2016-12-31T07:59:33.912Z,1025.12
2016-12-31T08:00:39.101Z,1025.11
2016-12-31T08:01:44.362Z,1025.05
2016-12-31T08:02:48.592Z,1025.06
2016-12-31T08:03:54.756Z,1025.06
2016-12-31T08:04:59.978Z,1025.09
2016-12-31T08:06:06.155Z,1025.04
2016-12-31T08:07:11.321Z,1025.1
2016-12-31T08:08:17.489Z,1025.08
2016-12-31T08:09:22.675Z,1025.11
2016-12-31T08:10:28.839Z,1025.11
2016-12-31T08:11:34.029Z,1025.11
2016-12-31T08:12:38.228Z,1025.1
2016-12-31T08:13:43.427Z,1025.15
2016-12-31T08:14:47.681Z,1025.16
2016-12-31T08:15:53.819Z,1025.18
2016-12-31T08:16:59.015Z,1025.17
2016-12-31T08:18:04.207Z,1025.16
2016-12-31T08:19:09.508Z,1025.13
2016-12-31T08:20:14.708Z,1025.16
2016-12-31T08:21:20.878Z,1025.11
2016-12-31T08:22:26.068Z,1025.21
2016-12-31T08:23:31.262Z,1025.18
2016-12-31T08:24:37.453Z,1025.15
2016-12-31T08:25:43.644Z,1025.16
2016-12-31T08:26:49.834Z,1025.17
2016-12-31T08:27:55.950Z,1025.13
2016-12-31T08:29:02.117Z,1025.08
2016-12-31T08:30:08.278Z,1025.08
2016-12-31T08:31:14.449Z,1025.06
2016-12-31T08:32:19.607Z,1025.15
2016-12-31T08:33:23.839Z,1025.08
2016-12-31T08:34:30.003Z,1025.13
2016-12-31T08:35:34.236Z,1025.13
2016-12-31T08:36:39.452Z,1025.12
2016-12-31T08:37:43.675Z,1025.14
2016-12-31T08:38:48.873Z,1025.16
2016-12-31T08:39:54.065Z,1025.13
2016-12-31T08:40:57.325Z,1025.14
2016-12-31T08:42:03.488Z,1025.16
2016-12-31T08:43:07.690Z,1025.18
2016-12-31T08:44:13.858Z,1025.18
2016-12-31T08:46:22.278Z,1025.15
2016-12-31T08:47:27.449Z,1025.15
2016-12-31T08:48:33.625Z,1025.12
2016-12-31T08:49:39.786Z,1025.13
2016-12-31T08:50:45.967Z,1025.16
2016-12-31T08:51:52.125Z,1025.14
2016-12-31T08:52:57.324Z,1025.16
2016-12-31T08:54:03.483Z,1025.17
2016-12-31T08:55:09.776Z,1025.11
2016-12-31T08:56:15.668Z,1025.12
2016-12-31T08:57:19.884Z,1025.1
2016-12-31T08:58:26.048Z,1025.08
2016-12-31T08:59:32.211Z,1025.04
2016-12-31T09:00:38.380Z,1025.06
2016-12-31T09:01:44.587Z,1025.1
2016-12-31T09:02:50.744Z,1025.11
2016-12-31T09:03:56.908Z,1025.08
2016-12-31T09:05:03.088Z,1025.1
2016-12-31T09:06:09.257Z,1025.1
2016-12-31T09:07:15.413Z,1025.12
2016-12-31T09:08:21.655Z,1025.12
2016-12-31T09:09:27.795Z,1025.13
2016-12-31T09:10:31.055Z,1025.13
2016-12-31T09:11:37.228Z,1025.16
2016-12-31T09:12:43.402Z,1025.16
2016-12-31T09:13:48.579Z,1025.21
2016-12-31T09:14:52.777Z,1025.2
2016-12-31T09:15:58.943Z,1025.13
2016-12-31T09:17:05.222Z,1025.18
2016-12-31T09:18:10.444Z,1025.15
2016-12-31T09:19:16.575Z,1025.14
2016-12-31T09:20:22.737Z,1025.12
2016-12-31T09:21:26.969Z,1025.16
2016-12-31T09:22:33.138Z,1025.13
2016-12-31T09:23:39.294Z,1025.08
2016-12-31T09:24:45.455Z,1025.1
2016-12-31T09:25:49.794Z,1025.12
2016-12-31T09:26:55.111Z,1025.11
2016-12-31T09:28:00.327Z,1025.13
2016-12-31T09:29:06.501Z,1025.12
2016-12-31T09:30:10.698Z,1025.06
2016-12-31T09:31:15.947Z,1025.1
2016-12-31T09:32:20.229Z,1025.08
2016-12-31T09:33:24.493Z,1025.08
2016-12-31T09:34:28.802Z,1025.05
2016-12-31T09:35:34.969Z,1025.06
2016-12-31T09:36:39.165Z,1025.05
2016-12-31T09:37:43.362Z,1025.08
2016-12-31T09:38:48.584Z,1025.07
2016-12-31T09:39:53.773Z,1025.09
2016-12-31T09:40:58.935Z,1025.05
2016-12-31T09:42:04.188Z,1025.08
2016-12-31T09:43:10.348Z,1025.05
2016-12-31T09:44:16.507Z,1025.07
2016-12-31T09:45:22.419Z,1025.05
2016-12-31T09:46:28.626Z,1025.06
2016-12-31T09:47:34.752Z,1025.06
2016-12-31T09:48:39.952Z,1025.1
2016-12-31T09:49:45.145Z,1025.03
2016-12-31T09:50:50.344Z,1025.02
2016-12-31T09:51:55.539Z,1024.98
2016-12-31T09:52:59.744Z,1024.97
2016-12-31T09:54:05.909Z,1024.99
2016-12-31T09:55:12.071Z,1025
2016-12-31T09:56:17.260Z,1024.95
2016-12-31T09:57:22.817Z,1024.95
2016-12-31T09:58:27.011Z,1024.96
2016-12-31T09:59:31.242Z,1024.92
2016-12-31T10:00:35.477Z,1024.94
2016-12-31T10:01:38.708Z,1024.94
2016-12-31T10:02:44.862Z,1024.91
2016-12-31T10:03:50.081Z,1024.93
2016-12-31T10:04:56.283Z,1024.89
2016-12-31T10:06:02.443Z,1024.86
2016-12-31T10:07:07.636Z,1024.85
2016-12-31T10:08:13.803Z,1024.82
2016-12-31T10:09:19.959Z,1024.82
2016-12-31T10:10:25.165Z,1024.79
2016-12-31T10:11:31.420Z,1024.81
2016-12-31T10:12:37.582Z,1024.81
2016-12-31T10:13:41.823Z,1024.76
2016-12-31T10:14:47.018Z,1024.81
2016-12-31T10:15:53.182Z,1024.77
2016-12-31T10:16:58.378Z,1024.77
2016-12-31T10:18:02.710Z,1024.71
2016-12-31T10:19:07.887Z,1024.73
2016-12-31T10:20:13.100Z,1024.72
2016-12-31T10:21:18.273Z,1024.69
2016-12-31T10:22:23.468Z,1024.75
2016-12-31T10:23:29.639Z,1024.71
2016-12-31T10:24:35.880Z,1024.73
2016-12-31T10:25:42.072Z,1024.74
2016-12-31T10:26:48.234Z,1024.69
2016-12-31T10:27:53.423Z,1024.75
2016-12-31T10:28:58.625Z,1024.73
2016-12-31T10:30:04.871Z,1024.73
2016-12-31T10:31:11.036Z,1024.72
2016-12-31T10:32:15.347Z,1024.76
2016-12-31T10:33:18.967Z,1024.71
2016-12-31T10:34:25.099Z,1024.68
2016-12-31T10:35:31.360Z,1024.69
2016-12-31T10:36:35.559Z,1024.69
2016-12-31T10:37:39.781Z,1024.67
2016-12-31T10:38:44.952Z,1024.67
2016-12-31T10:39:49.157Z,1024.67
2016-12-31T10:40:53.469Z,1024.68
2016-12-31T10:41:59.705Z,1024.66
2016-12-31T10:43:04.902Z,1024.63
2016-12-31T10:44:11.068Z,1024.66
2016-12-31T10:45:16.268Z,1024.68
2016-12-31T10:46:22.428Z,1024.64
2016-12-31T10:47:27.617Z,1024.65
2016-12-31T10:48:33.851Z,1024.61
2016-12-31T10:49:39.044Z,1024.61
2016-12-31T10:50:42.303Z,1024.61
2016-12-31T10:51:47.485Z,1024.61
2016-12-31T10:52:53.640Z,1024.63
2016-12-31T10:53:58.832Z,1024.61
2016-12-31T10:55:05.049Z,1024.59
2016-12-31T10:56:10.220Z,1024.62
2016-12-31T10:57:15.409Z,1024.65
2016-12-31T10:58:21.582Z,1024.58
2016-12-31T10:59:27.972Z,1024.56
2016-12-31T11:00:31.241Z,1024.61
2016-12-31T11:01:36.439Z,1024.56
2016-12-31T11:02:41.698Z,1024.57
2016-12-31T11:03:46.895Z,1024.51
2016-12-31T11:04:52.177Z,1024.5
2016-12-31T11:05:58.303Z,1024.5
2016-12-31T11:07:02.533Z,1024.47
2016-12-31T11:08:07.836Z,1024.46
2016-12-31T11:09:14.020Z,1024.47
2016-12-31T11:10:19.223Z,1024.35
2016-12-31T11:11:24.430Z,1024.4
2016-12-31T11:12:29.665Z,1024.29
2016-12-31T11:13:35.836Z,1024.34
2016-12-31T11:14:41.088Z,1024.29
2016-12-31T11:15:47.278Z,1024.3
2016-12-31T11:16:52.480Z,1024.35
2016-12-31T11:17:55.749Z,1024.3
2016-12-31T11:19:01.995Z,1024.3
2016-12-31T11:20:06.370Z,1024.25
2016-12-31T11:21:10.231Z,1024.23
2016-12-31T11:22:14.431Z,1024.29
2016-12-31T11:23:19.053Z,1024.29
2016-12-31T11:24:24.263Z,1024.26
2016-12-31T11:25:29.588Z,1024.27
2016-12-31T11:26:34.795Z,1024.24
2016-12-31T11:27:39.007Z,1024.25
2016-12-31T11:28:45.167Z,1024.24
2016-12-31T11:29:49.377Z,1024.15
2016-12-31T11:30:54.705Z,1024.19
2016-12-31T11:31:59.877Z,1024.15
2016-12-31T11:33:06.132Z,1024.16
2016-12-31T11:34:12.292Z,1024.11
2016-12-31T11:35:17.498Z,1024.09
2016-12-31T11:36:21.727Z,1024.1
2016-12-31T11:37:27.890Z,1024.1
2016-12-31T11:38:33.093Z,1024.09
2016-12-31T11:39:39.277Z,1024.04
2016-12-31T11:40:45.443Z,1024.08
2016-12-31T11:41:51.613Z,1024.05
2016-12-31T11:42:55.844Z,1024.04
2016-12-31T11:44:01.017Z,1024.01
2016-12-31T11:45:07.185Z,1023.99
2016-12-31T11:46:13.422Z,1024.03
2016-12-31T11:47:19.581Z,1024.02
2016-12-31T11:48:22.839Z,1024.05
2016-12-31T11:49:27.079Z,1023.99
2016-12-31T11:50:32.245Z,1024.02
2016-12-31T11:51:37.445Z,1024.03
2016-12-31T11:52:42.636Z,1023.99
2016-12-31T11:53:44.931Z,1024
2016-12-31T11:54:51.092Z,1023.97
2016-12-31T11:55:57.277Z,1023.96
2016-12-31T11:57:02.524Z,1024
2016-12-31T11:58:05.830Z,1023.97
2016-12-31T11:59:11.980Z,1023.99
2016-12-31T12:00:17.191Z,1023.9
2016-12-31T12:01:22.512Z,1023.89
2016-12-31T12:02:27.845Z,1023.89
2016-12-31T12:03:34.010Z,1023.87
2016-12-31T12:04:40.177Z,1023.85
2016-12-31T12:05:45.368Z,1023.86
2016-12-31T12:06:50.569Z,1023.8
2016-12-31T12:07:56.983Z,1023.82
2016-12-31T12:09:03.170Z,1023.77
2016-12-31T12:10:08.375Z,1023.83
2016-12-31T12:11:14.565Z,1023.8
2016-12-31T12:12:17.777Z,1023.76
2016-12-31T12:13:21.982Z,1023.75
2016-12-31T12:14:28.146Z,1023.71
2016-12-31T12:15:34.309Z,1023.7
2016-12-31T12:16:38.560Z,1023.67
2016-12-31T12:17:43.709Z,1023.59
2016-12-31T12:18:49.874Z,1023.58
2016-12-31T12:19:56.038Z,1023.6
2016-12-31T12:21:02.294Z,1023.57
2016-12-31T12:22:08.451Z,1023.54
2016-12-31T12:23:13.651Z,1023.5
2016-12-31T12:24:18.850Z,1023.51
2016-12-31T12:25:24.055Z,1023.52
2016-12-31T12:26:30.221Z,1023.47
2016-12-31T12:27:35.627Z,1023.48
2016-12-31T12:28:40.828Z,1023.43
2016-12-31T12:29:46.038Z,1023.43
2016-12-31T12:30:52.218Z,1023.41
2016-12-31T12:31:57.409Z,1023.42
2016-12-31T12:33:03.571Z,1023.42
2016-12-31T12:34:07.810Z,1023.41
2016-12-31T12:35:14.072Z,1023.43
2016-12-31T12:36:20.050Z,1023.42
2016-12-31T12:37:25.228Z,1023.38
2016-12-31T12:38:31.391Z,1023.34
2016-12-31T12:39:37.567Z,1023.34
2016-12-31T12:40:43.821Z,1023.33
2016-12-31T12:41:49.976Z,1023.32
2016-12-31T12:42:54.197Z,1023.32
2016-12-31T12:43:59.369Z,1023.26
2016-12-31T12:45:05.534Z,1023.32
2016-12-31T12:46:09.754Z,1023.24
2016-12-31T12:47:14.951Z,1023.18
2016-12-31T12:48:21.114Z,1023.25
2016-12-31T12:49:26.458Z,1023.27
2016-12-31T12:50:30.582Z,1023.21
2016-12-31T12:51:36.746Z,1023.17
2016-12-31T12:52:42.913Z,1023.17
2016-12-31T12:53:49.087Z,1023.15
2016-12-31T12:54:54.376Z,1023.1
2016-12-31T12:55:58.589Z,1023.08
2016-12-31T12:57:04.736Z,1023.04
2016-12-31T12:58:10.908Z,1023.05
2016-12-31T12:59:17.225Z,1023.03
2016-12-31T13:00:22.399Z,1022.98
2016-12-31T13:01:28.581Z,1022.99
2016-12-31T13:02:33.784Z,1023.02
2016-12-31T13:03:38.957Z,1023.01
2016-12-31T13:04:43.190Z,1022.98
2016-12-31T13:05:48.472Z,1022.96
2016-12-31T13:06:53.666Z,1022.91
2016-12-31T13:07:58.867Z,1022.88
2016-12-31T13:09:02.107Z,1022.83
2016-12-31T13:10:08.398Z,1022.83
2016-12-31T13:11:13.592Z,1022.85
2016-12-31T13:12:18.790Z,1022.82
2016-12-31T13:13:25.094Z,1022.79
2016-12-31T13:14:31.267Z,1022.84
2016-12-31T13:15:36.428Z,1022.75